createdAt,value
2022-11-18T00:00:45.682Z,7.56
2022-11-18T00:01:42.334Z,7.26
2022-11-18T00:02:39.075Z,7.49
2022-11-18T00:03:36.349Z,7.49
2022-11-18T00:04:32.942Z,7.22
2022-11-18T00:05:29.501Z,7.14
2022-11-18T00:06:27.893Z,6.95
2022-11-18T00:07:24.483Z,7.05
2022-11-18T00:08:21.612Z,7.29
2022-11-18T00:09:18.575Z,7.21
2022-11-18T00:10:15.754Z,7.47
2022-11-18T00:11:37.642Z,7.33
2022-11-18T00:12:52.462Z,7.56
2022-11-18T00:14:07.601Z,7.80
2022-11-18T00:15:04.433Z,7.72
2022-11-18T00:16:10.734Z,7.76
2022-11-18T00:17:07.413Z,7.81
2022-11-18T00:18:04.019Z,7.89
2022-11-18T00:19:00.617Z,8.06
2022-11-18T00:19:57.196Z,8.13
2022-11-18T00:20:53.802Z,7.99
2022-11-18T00:21:50.422Z,7.55
2022-11-18T00:22:47.166Z,7.84
2022-11-18T00:23:43.836Z,7.96
2022-11-18T00:24:40.465Z,7.77
2022-11-18T00:25:37.133Z,7.69
2022-11-18T00:26:33.805Z,7.55
2022-11-18T00:27:33.588Z,7.34
2022-11-18T00:28:31.507Z,7.40
2022-11-18T00:29:28.657Z,7.25
2022-11-18T00:30:25.515Z,7.24
2022-11-18T00:31:22.137Z,7.44
2022-11-18T00:32:18.715Z,7.13
2022-11-18T00:33:15.310Z,7.33
2022-11-18T00:34:14.431Z,7.43
2022-11-18T00:35:11.091Z,7.49
2022-11-18T00:36:10.926Z,7.44
2022-11-18T00:37:07.496Z,7.33
2022-11-18T00:38:04.130Z,7.18
2022-11-18T00:39:00.823Z,6.92
2022-11-18T00:39:57.387Z,7.03
2022-11-18T00:41:04.353Z,7.08
2022-11-18T00:42:19.612Z,7.10
2022-11-18T00:43:16.275Z,7.03
2022-11-18T00:44:12.903Z,6.92
2022-11-18T00:45:09.931Z,7.02
2022-11-18T00:46:08.566Z,6.87
2022-11-18T00:47:05.382Z,6.83
2022-11-18T00:48:03.043Z,6.85
2022-11-18T00:48:59.632Z,7.13
2022-11-18T00:49:56.272Z,7.06
2022-11-18T00:50:55.392Z,6.91
2022-11-18T00:51:52.179Z,6.87
2022-11-18T00:52:48.845Z,6.77
2022-11-18T00:53:45.848Z,6.85
2022-11-18T00:54:42.509Z,6.73
2022-11-18T00:55:39.302Z,7.02
2022-11-18T00:56:36.075Z,7.05
2022-11-18T00:57:32.661Z,6.81
2022-11-18T00:58:30.202Z,6.91
2022-11-18T00:59:26.838Z,6.93
2022-11-18T01:00:23.489Z,6.94
2022-11-18T01:01:20.141Z,6.93
2022-11-18T01:02:16.861Z,6.98
2022-11-18T01:03:13.472Z,6.94
2022-11-18T01:04:10.190Z,6.99
2022-11-18T01:05:07.128Z,7.13
2022-11-18T01:06:03.912Z,7.10
2022-11-18T01:07:00.540Z,7.12
2022-11-18T01:07:57.181Z,7.07
2022-11-18T01:08:53.872Z,7.40
2022-11-18T01:09:50.582Z,7.58
2022-11-18T01:10:48.817Z,7.66
2022-11-18T01:12:03.798Z,7.85
2022-11-18T01:13:19.334Z,7.65
2022-11-18T01:14:15.961Z,7.54
2022-11-18T01:15:12.577Z,7.39
2022-11-18T01:16:09.169Z,7.28
2022-11-18T01:17:05.783Z,7.14
2022-11-18T01:18:02.353Z,7.04
2022-11-18T01:18:58.956Z,7.01
2022-11-18T01:19:55.555Z,7.17
2022-11-18T01:20:52.407Z,6.98
2022-11-18T01:21:49.045Z,6.64
2022-11-18T01:22:45.676Z,6.90
2022-11-18T01:23:42.276Z,6.71
2022-11-18T01:24:38.917Z,6.96
2022-11-18T01:25:37.699Z,6.43
2022-11-18T01:26:34.304Z,6.76
2022-11-18T01:27:31.291Z,6.84
2022-11-18T01:28:27.939Z,6.88
2022-11-18T01:29:24.522Z,6.90
2022-11-18T01:30:21.957Z,6.71
2022-11-18T01:31:19.565Z,6.98
2022-11-18T01:32:24.997Z,6.77
2022-11-18T01:33:22.055Z,6.51
2022-11-18T01:34:18.730Z,6.58
2022-11-18T01:35:15.533Z,6.77
2022-11-18T01:36:16.301Z,6.70
2022-11-18T01:37:12.865Z,6.55
2022-11-18T01:38:13.377Z,6.52
2022-11-18T01:39:10.074Z,6.88
2022-11-18T01:40:08.623Z,6.71
2022-11-18T01:41:05.297Z,6.79
2022-11-18T01:42:01.948Z,6.82
2022-11-18T01:42:58.696Z,7.02
2022-11-18T01:44:04.003Z,7.11
2022-11-18T01:45:04.886Z,6.83
2022-11-18T01:46:01.510Z,6.81
2022-11-18T01:46:58.078Z,6.80
2022-11-18T01:47:57.429Z,7.00
2022-11-18T01:49:09.129Z,6.92
2022-11-18T01:50:06.833Z,6.87
2022-11-18T01:51:11.053Z,6.91
2022-11-18T01:52:08.727Z,6.68
2022-11-18T01:53:09.985Z,7.08
2022-11-18T01:54:12.686Z,7.00
2022-11-18T01:55:31.148Z,7.17
2022-11-18T01:56:43.341Z,7.04
2022-11-18T01:57:41.266Z,6.84
2022-11-18T01:58:53.657Z,6.64
2022-11-18T01:59:53.935Z,6.97
2022-11-18T02:00:50.593Z,7.22
2022-11-18T02:01:47.782Z,6.99
2022-11-18T02:02:45.197Z,6.96
2022-11-18T02:03:43.326Z,6.94
2022-11-18T02:04:43.250Z,7.30
2022-11-18T02:05:42.455Z,7.39
2022-11-18T02:06:39.107Z,7.17
2022-11-18T02:07:42.976Z,7.24
2022-11-18T02:08:41.588Z,7.18
2022-11-18T02:09:38.927Z,6.94
2022-11-18T02:10:35.496Z,6.89
2022-11-18T02:11:51.170Z,6.94
2022-11-18T02:12:50.255Z,7.19
2022-11-18T02:13:46.841Z,7.17
2022-11-18T02:14:46.725Z,7.27
2022-11-18T02:15:56.848Z,7.23
2022-11-18T02:17:14.745Z,7.34
2022-11-18T02:18:31.022Z,7.10
2022-11-18T02:19:38.546Z,7.14
2022-11-18T02:20:41.039Z,7.23
2022-11-18T02:21:46.231Z,7.25
2022-11-18T02:22:54.802Z,7.33
2022-11-18T02:23:51.368Z,7.21
2022-11-18T02:24:57.236Z,7.52
2022-11-18T02:26:16.801Z,7.42
2022-11-18T02:27:33.666Z,7.30
2022-11-18T02:28:38.814Z,6.98
2022-11-18T02:29:43.825Z,7.16
2022-11-18T02:30:52.502Z,7.07
2022-11-18T02:31:58.557Z,7.08
2022-11-18T02:33:06.983Z,7.07
2022-11-18T02:34:09.654Z,7.10
2022-11-18T02:35:46.910Z,7.29
2022-11-18T02:37:15.526Z,7.51
2022-11-18T02:38:20.437Z,7.45
2022-11-18T02:39:23.559Z,7.17
2022-11-18T02:40:25.159Z,7.25
2022-11-18T02:41:26.470Z,7.23
2022-11-18T02:42:25.539Z,7.19
2022-11-18T02:43:28.051Z,7.15
2022-11-18T02:44:26.051Z,7.16
2022-11-18T02:45:23.976Z,7.17
2022-11-18T02:46:26.474Z,7.20
2022-11-18T02:47:24.757Z,7.35
2022-11-18T02:48:24.809Z,7.29
2022-11-18T02:49:28.952Z,7.35
2022-11-18T02:50:28.940Z,7.11
2022-11-18T02:51:29.532Z,7.04
2022-11-18T02:52:27.858Z,7.03
2022-11-18T02:53:28.396Z,7.35
2022-11-18T02:54:28.324Z,7.17
2022-11-18T02:55:29.801Z,7.39
2022-11-18T02:56:27.505Z,7.27
2022-11-18T02:57:26.599Z,7.22
2022-11-18T02:58:25.316Z,6.80
2022-11-18T02:59:22.001Z,7.03
2022-11-18T03:00:18.721Z,7.45
2022-11-18T03:01:27.423Z,7.73
2022-11-18T03:02:24.208Z,7.72
2022-11-18T03:03:35.571Z,7.34
2022-11-18T03:04:33.566Z,7.42
2022-11-18T03:05:43.210Z,7.48
2022-11-18T03:06:48.759Z,7.57
2022-11-18T03:07:51.415Z,7.36
2022-11-18T03:08:55.759Z,7.32
2022-11-18T03:09:53.622Z,7.50
2022-11-18T03:11:02.575Z,7.25
2022-11-18T03:12:14.153Z,7.29
2022-11-18T03:13:38.802Z,7.16
2022-11-18T03:15:01.174Z,7.28
2022-11-18T03:16:06.824Z,7.37
2022-11-18T03:17:26.214Z,7.41
2022-11-18T03:18:30.508Z,7.43
2022-11-18T03:20:01.287Z,7.40
2022-11-18T03:21:26.821Z,7.44
2022-11-18T03:22:30.762Z,7.47
2022-11-18T03:23:38.813Z,7.43
2022-11-18T03:24:41.035Z,7.22
2022-11-18T03:26:02.112Z,7.38
2022-11-18T03:27:14.046Z,7.49
2022-11-18T03:28:19.309Z,7.29
2022-11-18T03:29:21.728Z,7.46
2022-11-18T03:30:20.527Z,7.21
2022-11-18T03:31:38.347Z,7.55
2022-11-18T03:32:41.369Z,7.58
2022-11-18T03:33:49.470Z,7.75
2022-11-18T03:34:50.455Z,7.58
2022-11-18T03:35:50.846Z,7.87
2022-11-18T03:36:52.145Z,7.89
2022-11-18T03:37:51.936Z,7.93
2022-11-18T03:38:53.399Z,7.76
2022-11-18T03:39:54.634Z,7.32
2022-11-18T03:40:56.175Z,7.26
2022-11-18T03:42:05.298Z,7.02
2022-11-18T03:43:19.485Z,6.87
2022-11-18T03:44:24.009Z,6.74
2022-11-18T03:45:39.387Z,6.85
2022-11-18T03:46:41.109Z,7.04
2022-11-18T03:47:44.197Z,6.83
2022-11-18T03:48:59.757Z,6.76
2022-11-18T03:50:02.149Z,6.98
2022-11-18T03:51:06.663Z,7.06
2022-11-18T03:52:10.713Z,6.78
2022-11-18T03:53:08.304Z,6.86
2022-11-18T03:54:14.567Z,6.64
2022-11-18T03:55:40.421Z,6.71
2022-11-18T03:56:42.547Z,6.70
2022-11-18T03:57:43.939Z,6.48
2022-11-18T03:58:53.469Z,7.03
2022-11-18T04:00:11.773Z,6.97
2022-11-18T04:01:33.262Z,6.51
2022-11-18T04:02:31.026Z,6.61
2022-11-18T04:03:27.963Z,6.51
2022-11-18T04:04:26.846Z,6.75
2022-11-18T04:05:23.541Z,6.76
2022-11-18T04:06:39.049Z,6.65
2022-11-18T04:07:48.058Z,6.69
2022-11-18T04:08:50.660Z,6.80
2022-11-18T04:09:56.308Z,6.55
2022-11-18T04:11:02.148Z,6.64
2022-11-18T04:12:10.048Z,6.49
2022-11-18T04:13:12.677Z,6.54
2022-11-18T04:14:10.846Z,6.69
2022-11-18T04:15:08.167Z,6.30
2022-11-18T04:16:07.699Z,6.37
2022-11-18T04:17:19.876Z,6.50
2022-11-18T04:18:16.513Z,6.61
2022-11-18T04:19:13.160Z,6.47
2022-11-18T04:20:21.144Z,6.56
2022-11-18T04:21:17.770Z,6.58
2022-11-18T04:22:14.888Z,6.84
2022-11-18T04:23:11.541Z,6.79
2022-11-18T04:24:08.446Z,6.70
2022-11-18T04:25:05.307Z,6.74
2022-11-18T04:26:01.949Z,6.72
2022-11-18T04:26:59.045Z,6.81
2022-11-18T04:27:55.726Z,6.76
2022-11-18T04:28:52.362Z,6.47
2022-11-18T04:29:49.056Z,6.57
2022-11-18T04:30:45.706Z,6.40
2022-11-18T04:31:42.318Z,6.57
2022-11-18T04:32:38.913Z,6.56
2022-11-18T04:33:35.539Z,6.76
2022-11-18T04:34:32.396Z,7.00
2022-11-18T04:35:29.250Z,6.69
2022-11-18T04:36:25.838Z,6.82
2022-11-18T04:37:22.490Z,6.94
2022-11-18T04:38:21.894Z,6.99
2022-11-18T04:39:19.169Z,7.11
2022-11-18T04:40:16.188Z,6.76
2022-11-18T04:41:12.781Z,6.66
2022-11-18T04:42:09.468Z,6.80
2022-11-18T04:43:06.034Z,6.96
2022-11-18T04:44:13.080Z,7.34
2022-11-18T04:45:10.745Z,6.99
2022-11-18T04:46:07.591Z,7.17
2022-11-18T04:47:06.144Z,7.47
2022-11-18T04:48:03.909Z,7.37
2022-11-18T04:49:00.651Z,7.24
2022-11-18T04:49:57.264Z,7.10
2022-11-18T04:50:53.896Z,7.04
2022-11-18T04:51:51.627Z,6.95
2022-11-18T04:52:48.285Z,6.91
2022-11-18T04:53:44.928Z,6.69
2022-11-18T04:54:41.631Z,6.47
2022-11-18T04:55:38.263Z,6.47
2022-11-18T04:56:35.234Z,6.37
2022-11-18T04:57:31.836Z,6.37
2022-11-18T04:58:28.373Z,6.42
2022-11-18T04:59:27.918Z,6.39
2022-11-18T05:00:24.486Z,6.33
2022-11-18T05:01:21.280Z,6.29
2022-11-18T05:02:17.969Z,6.30
2022-11-18T05:03:15.131Z,6.24
2022-11-18T05:04:17.453Z,6.26
2022-11-18T05:05:14.065Z,6.28
2022-11-18T05:06:10.634Z,6.29
2022-11-18T05:07:08.017Z,6.16
2022-11-18T05:08:04.882Z,6.20
2022-11-18T05:09:01.761Z,6.46
2022-11-18T05:09:58.329Z,6.93
2022-11-18T05:11:14.838Z,6.97
2022-11-18T05:12:31.929Z,7.22
2022-11-18T05:13:28.486Z,7.41
2022-11-18T05:14:27.388Z,7.22
2022-11-18T05:15:24.582Z,7.29
2022-11-18T05:16:21.165Z,7.42
2022-11-18T05:17:19.173Z,7.18
2022-11-18T05:18:15.829Z,7.30
2022-11-18T05:19:12.749Z,7.23
2022-11-18T05:20:09.897Z,6.94
2022-11-18T05:21:06.766Z,7.13
2022-11-18T05:22:03.408Z,7.39
2022-11-18T05:22:59.976Z,7.34
2022-11-18T05:23:56.741Z,7.33
2022-11-18T05:24:53.390Z,7.42
2022-11-18T05:25:49.977Z,7.49
2022-11-18T05:26:46.866Z,7.38
2022-11-18T05:27:43.471Z,7.35
2022-11-18T05:28:40.132Z,7.36
2022-11-18T05:29:36.786Z,7.40
2022-11-18T05:30:33.430Z,7.17
2022-11-18T05:31:30.026Z,7.49
2022-11-18T05:32:26.689Z,7.50
2022-11-18T05:33:23.272Z,7.29
2022-11-18T05:34:20.086Z,7.73
2022-11-18T05:35:16.793Z,7.60
2022-11-18T05:36:15.654Z,7.60
2022-11-18T05:37:12.781Z,7.68
2022-11-18T05:38:09.365Z,7.83
2022-11-18T05:39:06.128Z,7.39
2022-11-18T05:40:02.781Z,7.50
2022-11-18T05:40:59.470Z,7.20
2022-11-18T05:42:14.362Z,7.22
2022-11-18T05:43:11.179Z,7.10
2022-11-18T05:44:07.784Z,7.00
2022-11-18T05:45:05.182Z,7.02
2022-11-18T05:46:02.496Z,7.04
2022-11-18T05:47:00.267Z,6.81
2022-11-18T05:48:00.475Z,6.70
2022-11-18T05:48:57.617Z,6.62
2022-11-18T05:49:54.248Z,6.53
2022-11-18T05:50:52.748Z,6.31
2022-11-18T05:51:49.564Z,6.30
2022-11-18T05:52:46.134Z,6.33
2022-11-18T05:53:42.790Z,5.96
2022-11-18T05:54:44.829Z,6.14
2022-11-18T05:55:59.912Z,6.10
2022-11-18T05:56:56.532Z,5.98
2022-11-18T05:57:53.237Z,5.95
2022-11-18T05:58:50.068Z,5.62
2022-11-18T05:59:46.662Z,5.70
2022-11-18T06:00:46.093Z,5.70
2022-11-18T06:01:51.669Z,5.65
2022-11-18T06:02:50.495Z,5.33
2022-11-18T06:03:47.675Z,5.76
2022-11-18T06:04:50.938Z,6.11
2022-11-18T06:05:48.490Z,6.57
2022-11-18T06:06:49.035Z,6.61
2022-11-18T06:07:46.097Z,6.71
2022-11-18T06:08:56.636Z,6.91
2022-11-18T06:10:03.512Z,7.15
2022-11-18T06:11:02.305Z,7.49
2022-11-18T06:12:02.177Z,7.48
2022-11-18T06:13:03.555Z,7.73
2022-11-18T06:14:31.002Z,7.85
2022-11-18T06:15:35.342Z,7.64
2022-11-18T06:16:36.586Z,7.38
2022-11-18T06:17:43.669Z,7.34
2022-11-18T06:18:42.119Z,7.37
2022-11-18T06:19:39.050Z,7.44
2022-11-18T06:20:38.198Z,7.31
2022-11-18T06:21:35.094Z,7.07
2022-11-18T06:22:32.068Z,6.98
2022-11-18T06:23:30.850Z,6.89
2022-11-18T06:24:27.490Z,7.11
2022-11-18T06:25:24.390Z,7.10
2022-11-18T06:26:21.006Z,7.14
2022-11-18T06:27:18.427Z,7.39
2022-11-18T06:28:16.970Z,7.69
2022-11-18T06:29:16.525Z,7.99
2022-11-18T06:30:14.364Z,8.18
2022-11-18T06:31:11.139Z,8.30
2022-11-18T06:32:07.765Z,8.21
2022-11-18T06:33:04.332Z,7.55
2022-11-18T06:34:01.189Z,7.74
2022-11-18T06:34:57.790Z,7.44
2022-11-18T06:35:54.424Z,7.32
2022-11-18T06:36:51.020Z,7.53
2022-11-18T06:37:47.717Z,7.09
2022-11-18T06:38:44.273Z,6.95
2022-11-18T06:39:40.872Z,6.86
2022-11-18T06:40:38.044Z,7.28
2022-11-18T06:41:34.801Z,7.00
2022-11-18T06:42:50.062Z,6.85
2022-11-18T06:43:46.739Z,6.71
2022-11-18T06:44:43.361Z,6.64
2022-11-18T06:46:03.451Z,6.92
2022-11-18T06:47:03.886Z,7.31
2022-11-18T06:48:01.165Z,7.50
2022-11-18T06:48:58.171Z,7.77
2022-11-18T06:49:54.773Z,7.80
2022-11-18T06:50:51.342Z,7.81
2022-11-18T06:51:48.134Z,7.82
2022-11-18T06:52:44.806Z,7.85
2022-11-18T06:53:41.437Z,7.78
2022-11-18T06:54:38.000Z,7.60
2022-11-18T06:55:35.336Z,7.48
2022-11-18T06:56:31.935Z,7.42
2022-11-18T06:57:29.160Z,7.60
2022-11-18T06:58:25.735Z,7.60
2022-11-18T06:59:24.501Z,7.64
2022-11-18T07:00:21.283Z,7.95
2022-11-18T07:01:21.803Z,8.78
2022-11-18T07:02:19.140Z,9.11
2022-11-18T07:03:15.733Z,9.37
2022-11-18T07:04:12.333Z,9.50
2022-11-18T07:05:09.128Z,9.58
2022-11-18T07:06:06.514Z,9.90
2022-11-18T07:07:03.143Z,9.79
2022-11-18T07:07:59.793Z,10.11
2022-11-18T07:08:56.769Z,9.94
2022-11-18T07:09:53.368Z,10.04
2022-11-18T07:10:53.641Z,9.67
2022-11-18T07:11:50.250Z,10.16
2022-11-18T07:12:46.853Z,10.22
2022-11-18T07:13:44.382Z,10.30
2022-11-18T07:14:40.954Z,10.45
2022-11-18T07:15:37.563Z,10.51
2022-11-18T07:16:34.766Z,10.23
2022-11-18T07:17:31.753Z,10.06
2022-11-18T07:18:31.171Z,9.77
2022-11-18T07:19:32.806Z,9.96
2022-11-18T07:20:32.074Z,9.75
2022-11-18T07:21:29.485Z,9.53
2022-11-18T07:22:26.097Z,9.56
2022-11-18T07:23:22.729Z,8.85
2022-11-18T07:24:19.375Z,9.07
2022-11-18T07:25:15.966Z,8.75
2022-11-18T07:26:13.109Z,8.70
2022-11-18T07:27:09.787Z,8.64
2022-11-18T07:28:06.442Z,8.81
2022-11-18T07:29:03.076Z,9.03
2022-11-18T07:29:59.667Z,9.26
2022-11-18T07:31:09.356Z,9.27
2022-11-18T07:32:06.869Z,9.21
2022-11-18T07:33:03.494Z,9.46
2022-11-18T07:34:00.074Z,9.72
2022-11-18T07:34:56.669Z,9.84
2022-11-18T07:35:53.290Z,9.88
2022-11-18T07:36:49.965Z,9.38
2022-11-18T07:37:46.588Z,9.37
2022-11-18T07:38:43.513Z,8.94
2022-11-18T07:39:40.136Z,9.15
2022-11-18T07:40:36.770Z,9.09
2022-11-18T07:41:34.287Z,8.76
2022-11-18T07:42:42.537Z,8.75
2022-11-18T07:43:40.029Z,8.70
2022-11-18T07:44:36.697Z,8.53
2022-11-18T07:45:33.423Z,8.54
2022-11-18T07:46:33.151Z,8.73
2022-11-18T07:47:29.903Z,8.89
2022-11-18T07:48:26.505Z,8.89
2022-11-18T07:49:23.057Z,9.16
2022-11-18T07:50:19.891Z,9.35
2022-11-18T07:51:18.234Z,9.76
2022-11-18T07:52:15.212Z,9.86
2022-11-18T07:53:11.946Z,10.08
2022-11-18T07:54:11.325Z,10.43
2022-11-18T07:55:08.412Z,10.56
2022-11-18T07:56:06.678Z,10.62
2022-11-18T07:57:03.443Z,10.96
2022-11-18T07:58:00.042Z,11.20
2022-11-18T07:58:56.689Z,11.27
2022-11-18T07:59:53.267Z,11.04
2022-11-18T08:00:49.910Z,10.99
2022-11-18T08:01:46.594Z,11.19
2022-11-18T08:02:43.991Z,11.32
2022-11-18T08:03:42.023Z,11.34
2022-11-18T08:04:38.703Z,11.48
2022-11-18T08:05:35.432Z,11.78
2022-11-18T08:06:34.129Z,11.82
2022-11-18T08:07:30.747Z,11.46
2022-11-18T08:08:27.796Z,10.66
2022-11-18T08:09:24.357Z,10.33
2022-11-18T08:10:20.929Z,10.29
2022-11-18T08:11:22.798Z,10.45
2022-11-18T08:12:19.706Z,10.67
2022-11-18T08:13:16.266Z,10.82
2022-11-18T08:14:12.903Z,10.92
2022-11-18T08:15:09.902Z,10.99
2022-11-18T08:16:13.778Z,11.26
2022-11-18T08:17:10.334Z,11.32
2022-11-18T08:18:12.407Z,11.57
2022-11-18T08:19:10.211Z,11.37
2022-11-18T08:20:07.216Z,11.15
2022-11-18T08:21:04.014Z,11.14
2022-11-18T08:22:00.947Z,11.19
2022-11-18T08:22:57.536Z,11.24
2022-11-18T08:23:56.592Z,10.89
2022-11-18T08:24:53.184Z,10.86
2022-11-18T08:25:49.794Z,11.00
2022-11-18T08:26:46.347Z,11.40
2022-11-18T08:27:42.922Z,11.48
2022-11-18T08:28:43.455Z,11.58
2022-11-18T08:29:40.158Z,11.96
2022-11-18T08:30:37.534Z,12.37
2022-11-18T08:31:34.160Z,12.51
2022-11-18T08:32:30.741Z,12.50
2022-11-18T08:33:27.494Z,12.22
2022-11-18T08:34:24.046Z,11.35
2022-11-18T08:35:20.601Z,10.84
2022-11-18T08:36:22.884Z,10.66
2022-11-18T08:37:19.558Z,10.47
2022-11-18T08:38:16.145Z,10.16
2022-11-18T08:39:12.865Z,10.15
2022-11-18T08:40:10.059Z,9.66
2022-11-18T08:41:07.428Z,9.71
2022-11-18T08:42:04.078Z,9.89
2022-11-18T08:43:00.630Z,9.17
2022-11-18T08:43:57.263Z,8.26
2022-11-18T08:44:53.837Z,8.09
2022-11-18T08:45:50.430Z,8.87
2022-11-18T08:46:47.053Z,9.54
2022-11-18T08:47:43.763Z,9.96
2022-11-18T08:48:40.340Z,10.05
2022-11-18T08:49:36.948Z,10.22
2022-11-18T08:50:33.604Z,10.27
2022-11-18T08:51:30.316Z,10.12
2022-11-18T08:52:26.901Z,9.87
2022-11-18T08:53:23.569Z,9.28
2022-11-18T08:54:20.272Z,8.78
2022-11-18T08:55:16.915Z,8.87
2022-11-18T08:56:18.997Z,9.04
2022-11-18T08:57:15.699Z,8.98
2022-11-18T08:58:12.384Z,9.01
2022-11-18T08:59:09.551Z,9.26
2022-11-18T09:00:08.382Z,9.27
2022-11-18T09:01:06.866Z,9.31
2022-11-18T09:02:03.754Z,8.99
2022-11-18T09:03:00.443Z,8.89
2022-11-18T09:03:57.882Z,9.56
2022-11-18T09:04:54.577Z,9.62
2022-11-18T09:05:51.251Z,9.73
2022-11-18T09:06:47.947Z,10.19
2022-11-18T09:07:44.675Z,10.07
2022-11-18T09:08:42.169Z,10.25
2022-11-18T09:09:38.743Z,10.40
2022-11-18T09:10:37.617Z,10.53
2022-11-18T09:11:35.192Z,10.76
2022-11-18T09:12:31.835Z,11.04
2022-11-18T09:14:20.498Z,11.26
2022-11-18T09:16:02.738Z,11.53
2022-11-18T09:16:59.300Z,12.16
2022-11-18T09:17:58.894Z,12.25
2022-11-18T09:18:57.150Z,12.43
2022-11-18T09:19:53.849Z,12.30
2022-11-18T09:21:07.601Z,12.27
2022-11-18T09:22:04.832Z,12.49
2022-11-18T09:23:01.399Z,12.23
2022-11-18T09:23:57.992Z,12.17
2022-11-18T09:24:54.664Z,12.21
2022-11-18T09:25:58.751Z,11.62
2022-11-18T09:26:55.532Z,11.48
2022-11-18T09:27:52.758Z,11.56
2022-11-18T09:28:50.101Z,11.62
2022-11-18T09:29:46.767Z,12.09
2022-11-18T09:30:43.450Z,12.23
2022-11-18T09:31:40.022Z,12.62
2022-11-18T09:32:36.609Z,12.27
2022-11-18T09:33:33.272Z,12.13
2022-11-18T09:34:29.885Z,11.80
2022-11-18T09:35:26.441Z,12.63
2022-11-18T09:36:25.292Z,12.70
2022-11-18T09:37:22.594Z,12.76
2022-11-18T09:38:19.176Z,13.33
2022-11-18T09:39:15.919Z,13.27
2022-11-18T09:40:18.595Z,13.40
2022-11-18T09:41:33.611Z,13.46
2022-11-18T09:43:08.132Z,13.32
2022-11-18T09:44:29.035Z,13.51
2022-11-18T09:45:31.146Z,14.07
2022-11-18T09:47:03.151Z,14.25
2022-11-18T09:48:02.947Z,14.07
2022-11-18T09:49:14.299Z,14.24
2022-11-18T09:51:39.869Z,13.84
2022-11-18T09:52:44.176Z,14.16
2022-11-18T09:53:45.051Z,13.85
2022-11-18T09:54:41.783Z,13.55
2022-11-18T09:55:39.814Z,14.25
2022-11-18T09:56:36.520Z,14.31
2022-11-18T09:57:40.186Z,14.38
2022-11-18T09:58:38.445Z,14.48
2022-11-18T09:59:35.073Z,14.46
2022-11-18T10:00:32.125Z,13.60
2022-11-18T10:01:29.582Z,12.82
2022-11-18T10:02:48.926Z,12.84
2022-11-18T10:03:45.657Z,12.97
2022-11-18T10:04:42.227Z,13.27
2022-11-18T10:05:49.920Z,13.52
2022-11-18T10:06:48.008Z,13.70
2022-11-18T10:08:04.818Z,14.12
2022-11-18T10:09:28.090Z,14.05
2022-11-18T10:11:11.154Z,14.53
2022-11-18T10:12:30.432Z,14.44
2022-11-18T10:13:51.655Z,14.56
2022-11-18T10:15:10.022Z,14.08
2022-11-18T10:16:31.464Z,13.64
2022-11-18T10:17:43.477Z,13.79
2022-11-18T10:19:00.148Z,13.68
2022-11-18T10:20:16.764Z,13.70
2022-11-18T10:21:34.252Z,14.49
2022-11-18T10:22:47.599Z,14.23
2022-11-18T10:24:18.779Z,14.04
2022-11-18T10:25:17.998Z,14.33
2022-11-18T10:26:14.596Z,14.29
2022-11-18T10:27:14.175Z,14.35
2022-11-18T10:28:30.577Z,14.85
2022-11-18T10:29:27.306Z,14.97
2022-11-18T10:30:26.392Z,15.02
2022-11-18T10:31:23.052Z,14.77
2022-11-18T10:32:20.008Z,14.39
2022-11-18T10:33:22.464Z,14.05
2022-11-18T10:34:19.603Z,14.33
2022-11-18T10:35:28.684Z,14.89
2022-11-18T10:36:32.408Z,15.40
2022-11-18T10:38:05.720Z,15.64
2022-11-18T10:39:05.977Z,15.60
2022-11-18T10:40:04.979Z,15.81
2022-11-18T10:41:06.175Z,15.63
2022-11-18T10:42:06.891Z,15.44
2022-11-18T10:43:03.542Z,15.00
2022-11-18T10:44:00.242Z,14.76
2022-11-18T10:45:23.497Z,15.25
2022-11-18T10:46:27.527Z,15.72
2022-11-18T10:47:29.900Z,15.88
2022-11-18T10:48:26.650Z,16.05
2022-11-18T10:49:23.237Z,16.07
2022-11-18T10:50:42.756Z,14.97
2022-11-18T10:51:42.421Z,14.21
2022-11-18T10:52:52.216Z,14.25
2022-11-18T10:53:48.992Z,15.07
2022-11-18T10:54:45.961Z,15.66
2022-11-18T10:55:42.646Z,15.84
2022-11-18T10:56:58.526Z,16.05
2022-11-18T10:58:03.223Z,14.83
2022-11-18T10:58:59.833Z,14.96
2022-11-18T10:59:57.778Z,14.96
2022-11-18T11:01:05.496Z,14.75
2022-11-18T11:02:26.315Z,15.12
2022-11-18T11:03:33.558Z,15.20
2022-11-18T11:04:31.068Z,15.27
2022-11-18T11:05:28.052Z,14.90
2022-11-18T11:06:27.637Z,14.64
2022-11-18T11:07:33.023Z,14.32
2022-11-18T11:08:37.100Z,13.94
2022-11-18T11:09:36.578Z,14.32
2022-11-18T11:10:33.187Z,14.23
2022-11-18T11:11:32.972Z,13.94
2022-11-18T11:12:36.036Z,14.62
2022-11-18T11:13:38.246Z,14.61
2022-11-18T11:14:52.249Z,14.84
2022-11-18T11:15:53.104Z,14.67
2022-11-18T11:16:55.332Z,14.81
2022-11-18T11:18:16.505Z,15.08
2022-11-18T11:19:17.348Z,15.38
2022-11-18T11:20:17.093Z,15.48
2022-11-18T11:21:16.370Z,15.32
2022-11-18T11:22:13.489Z,15.27
2022-11-18T11:23:20.432Z,15.30
2022-11-18T11:24:24.718Z,14.96
2022-11-18T11:29:16.550Z,15.19
2022-11-18T11:30:23.701Z,15.17
2022-11-18T11:31:43.350Z,15.32
2022-11-18T11:33:00.867Z,15.04
2022-11-18T11:34:11.731Z,15.08
2022-11-18T11:35:14.554Z,15.41
2022-11-18T11:36:36.781Z,15.09
2022-11-18T11:37:56.152Z,15.12
2022-11-18T11:39:47.036Z,15.10
2022-11-18T11:41:05.125Z,15.21
2022-11-18T11:42:16.681Z,15.07
2022-11-18T11:43:22.352Z,15.17
2022-11-18T11:44:44.818Z,15.32
2022-11-18T11:45:59.638Z,15.16
2022-11-18T11:47:33.790Z,15.23
2022-11-18T11:49:27.435Z,15.28
2022-11-18T11:51:04.359Z,15.08
2022-11-18T11:52:22.587Z,15.10
2022-11-18T11:53:52.872Z,15.14
2022-11-18T11:54:59.602Z,15.14
2022-11-18T11:56:43.822Z,15.20
2022-11-18T11:58:09.566Z,15.21
2022-11-18T11:59:24.031Z,15.31
2022-11-18T12:00:21.058Z,15.19
2022-11-18T12:01:27.147Z,14.96
2022-11-18T12:02:47.733Z,14.92
2022-11-18T12:03:51.893Z,15.11
2022-11-18T12:05:10.887Z,15.24
2022-11-18T12:06:10.476Z,15.25
2022-11-18T12:07:15.530Z,15.19
2022-11-18T12:08:22.538Z,14.93
2022-11-18T12:09:34.283Z,14.94
2022-11-18T12:10:42.895Z,14.73
2022-11-18T12:12:01.237Z,15.00
2022-11-18T12:13:08.687Z,14.86
2022-11-18T12:14:39.955Z,14.61
2022-11-18T12:15:48.863Z,14.51
2022-11-18T12:16:48.779Z,14.32
2022-11-18T12:18:13.764Z,14.56
2022-11-18T12:19:18.312Z,14.52
2022-11-18T12:20:37.121Z,14.76
2022-11-18T12:21:45.721Z,14.75
2022-11-18T12:23:20.601Z,14.52
2022-11-18T12:24:30.923Z,14.50
2022-11-18T12:25:46.363Z,14.43
2022-11-18T12:26:44.242Z,14.33
2022-11-18T12:27:46.656Z,14.35
2022-11-18T12:28:49.350Z,14.48
2022-11-18T12:29:48.898Z,14.44
2022-11-18T12:30:48.398Z,14.36
2022-11-18T12:31:54.461Z,14.39
2022-11-18T12:32:57.045Z,14.37
2022-11-18T12:33:53.575Z,14.62
2022-11-18T12:35:25.791Z,14.37
2022-11-18T12:36:39.806Z,14.46
2022-11-18T12:37:51.674Z,14.83
2022-11-18T12:38:48.295Z,14.52
2022-11-18T12:39:44.930Z,14.43
2022-11-18T12:40:46.070Z,14.30
2022-11-18T12:42:05.636Z,14.22
2022-11-18T12:43:22.308Z,14.24
2022-11-18T12:44:24.127Z,14.37
2022-11-18T12:45:42.500Z,14.41
2022-11-18T12:46:42.793Z,14.50
2022-11-18T12:47:42.163Z,14.60
2022-11-18T12:48:41.275Z,14.67
2022-11-18T12:49:37.899Z,14.71
2022-11-18T12:50:48.998Z,14.59
2022-11-18T12:51:46.407Z,14.42
2022-11-18T12:52:43.090Z,14.48
2022-11-18T12:53:43.252Z,14.37
2022-11-18T12:54:45.654Z,14.39
2022-11-18T12:55:42.274Z,14.61
2022-11-18T12:56:38.936Z,14.72
2022-11-18T12:57:35.886Z,14.68
2022-11-18T12:58:32.495Z,14.88
2022-11-18T12:59:35.431Z,14.52
2022-11-18T13:00:52.461Z,14.65
2022-11-18T13:01:49.479Z,14.53
2022-11-18T13:02:53.829Z,14.52
2022-11-18T13:03:50.917Z,14.25
2022-11-18T13:05:24.288Z,14.60
2022-11-18T13:06:24.219Z,14.58
2022-11-18T13:07:40.090Z,14.58
2022-11-18T13:08:37.506Z,14.49
2022-11-18T13:09:35.897Z,14.31
2022-11-18T13:10:37.494Z,14.13
2022-11-18T13:11:46.845Z,14.13
2022-11-18T13:12:44.400Z,14.15
2022-11-18T13:13:42.177Z,14.33
2022-11-18T13:15:02.004Z,14.26
2022-11-18T13:16:41.988Z,14.41
2022-11-18T13:17:52.025Z,14.11
2022-11-18T13:18:53.308Z,13.91
2022-11-18T13:19:57.714Z,13.94
2022-11-18T13:20:59.453Z,13.95
2022-11-18T13:22:16.698Z,13.92
2022-11-18T13:23:31.857Z,13.93
2022-11-18T13:24:28.619Z,13.80
2022-11-18T13:25:26.510Z,13.95
2022-11-18T13:26:30.960Z,14.25
2022-11-18T13:27:49.694Z,14.07
2022-11-18T13:28:52.109Z,14.16
2022-11-18T13:30:11.734Z,14.10
2022-11-18T13:31:26.394Z,14.29
2022-11-18T13:32:27.697Z,14.24
2022-11-18T13:33:24.333Z,13.92
2022-11-18T13:34:27.173Z,14.33
2022-11-18T13:35:27.308Z,14.45
2022-11-18T13:36:26.116Z,14.15
2022-11-18T13:37:28.614Z,13.85
2022-11-18T13:38:28.408Z,13.80
2022-11-18T13:39:31.338Z,13.78
2022-11-18T13:40:31.159Z,13.67
2022-11-18T13:41:38.153Z,13.78
2022-11-18T13:42:34.763Z,13.58